Time;durP1;ratioP1;P1;durP2;ratioP2;P2;SDS_P1;SDS_P2;PMS_P1;PMS_P2;Temp;Humidity;BMP_temperature;BMP_pressure;BME280_temperature;BME280_humidity;BME280_pressure;Samples;Min_cycle;Max_cycle;Signal;HPM_P1;HPM_P2
2022/05/18 00:01:32;;;;;;;20.25;13.32;;;19.10;99.90;;;;;;5049878;28;20139;-75
2022/05/18 00:03:57;;;;;;;18.55;12.82;;;19.10;99.90;;;;;;5068121;28;20116;-75
2022/05/18 00:06:23;;;;;;;22.42;12.88;;;19.10;99.90;;;;;;5049825;28;20452;-75
2022/05/18 00:08:49;;;;;;;21.75;13.60;;;19.10;99.90;;;;;;5067884;28;20063;-75
2022/05/18 00:11:17;;;;;;;19.90;12.93;;;19.00;99.90;;;;;;5049065;28;20452;-75
2022/05/18 00:13:46;;;;;;;18.60;13.38;;;19.00;99.90;;;;;;5066941;28;20094;-74
2022/05/18 00:16:13;;;;;;;19.15;12.05;;;19.00;99.90;;;;;;5044531;28;20492;-75
2022/05/18 00:18:38;;;;;;;18.70;12.68;;;19.00;99.90;;;;;;5051605;28;20094;-75
2022/05/18 00:21:06;;;;;;;20.63;13.40;;;18.90;99.90;;;;;;5049215;28;20453;-75
2022/05/18 00:23:33;;;;;;;16.48;10.80;;;18.90;99.90;;;;;;5068382;28;20080;-75
2022/05/18 00:25:59;;;;;;;19.38;12.75;;;18.90;99.90;;;;;;5066262;28;20033;-75
2022/05/18 00:28:28;;;;;;;20.10;12.15;;;18.90;99.90;;;;;;5067104;28;20440;-75
2022/05/18 00:30:53;;;;;;;18.33;11.88;;;18.80;99.90;;;;;;5067446;28;20526;-75
2022/05/18 00:33:20;;;;;;;20.50;11.23;;;18.80;99.90;;;;;;5060233;28;20060;-75
2022/05/18 00:35:46;;;;;;;17.38;11.30;;;18.80;99.90;;;;;;5065606;28;20048;-75
2022/05/18 00:38:12;;;;;;;15.23;9.98;;;18.80;99.90;;;;;;5040928;28;20037;-75
2022/05/18 00:40:40;;;;;;;15.50;10.95;;;18.80;99.90;;;;;;5053001;28;20083;-75
2022/05/18 00:43:14;;;;;;;27.80;10.15;;;18.70;99.90;;;;;;5068090;28;20553;-75
2022/05/18 00:45:39;;;;;;;13.75;9.38;;;18.70;99.90;;;;;;5070288;28;20550;-75
2022/05/18 00:48:05;;;;;;;13.43;8.82;;;18.70;99.90;;;;;;5070725;28;20041;-75
2022/05/18 00:50:33;;;;;;;17.30;8.48;;;18.70;99.90;;;;;;5062154;28;20036;-75
2022/05/18 00:53:03;;;;;;;9.63;7.28;;;18.70;99.90;;;;;;5070756;28;20044;-75
2022/05/18 00:55:33;;;;;;;12.85;7.80;;;18.70;99.90;;;;;;5077891;28;20060;-75
2022/05/18 00:58:08;;;;;;;10.90;7.75;;;18.60;99.90;;;;;;5085760;28;20055;-75
2022/05/18 01:00:34;;;;;;;12.70;7.50;;;18.60;99.90;;;;;;5088508;28;20045;-75
2022/05/18 01:03:09;;;;;;;17.40;8.07;;;18.60;99.90;;;;;;5090106;28;20464;-76
2022/05/18 01:05:37;;;;;;;12.27;7.13;;;18.60;99.90;;;;;;5071205;28;20040;-75
2022/05/18 01:08:03;;;;;;;10.95;7.10;;;18.60;99.90;;;;;;5086390;28;20054;-75
2022/05/18 01:10:29;;;;;;;17.38;7.40;;;18.60;99.90;;;;;;5071934;28;20404;-75
2022/05/18 01:12:57;;;;;;;12.40;6.78;;;18.70;99.90;;;;;;5095739;28;20124;-76
2022/05/18 01:15:23;;;;;;;13.57;6.60;;;18.60;99.90;;;;;;5093885;28;20389;-75
2022/05/18 01:17:53;;;;;;;12.60;6.53;;;18.50;99.90;;;;;;5085394;28;20040;-75
2022/05/18 01:20:25;;;;;;;12.35;7.65;;;18.60;99.90;;;;;;5072134;28;20245;-75
2022/05/18 01:23:10;;;;;;;14.02;7.35;;;18.50;99.90;;;;;;5090581;28;20112;-75
2022/05/18 01:25:43;;;;;;;11.45;6.82;;;18.50;99.90;;;;;;5080562;28;20118;-75
2022/05/18 01:28:09;;;;;;;11.52;6.00;;;18.50;99.90;;;;;;5086614;28;20040;-75
2022/05/18 01:30:38;;;;;;;12.98;5.85;;;18.40;99.90;;;;;;5089466;28;20145;-75
2022/05/18 01:33:07;;;;;;;15.35;6.03;;;18.50;99.90;;;;;;5090477;28;20130;-75
2022/05/18 01:35:34;;;;;;;15.57;6.10;;;18.50;99.90;;;;;;5086418;28;20488;-75
2022/05/18 01:38:00;;;;;;;9.68;6.18;;;18.40;99.90;;;;;;5067136;28;20049;-75
2022/05/18 01:40:48;;;;;;;14.00;6.03;;;18.50;99.90;;;;;;5072461;28;20040;-76
2022/05/18 01:43:18;;;;;;;11.57;5.90;;;18.60;99.90;;;;;;5090251;28;20632;-75
2022/05/18 01:45:50;;;;;;;11.77;6.00;;;18.40;99.90;;;;;;5086352;28;20035;-74
2022/05/18 01:48:20;;;;;;;10.35;5.95;;;18.40;99.90;;;;;;5083020;28;20044;-75
2022/05/18 01:50:45;;;;;;;10.90;5.90;;;18.40;99.90;;;;;;5079429;28;20048;-75
2022/05/18 01:53:11;;;;;;;14.10;6.55;;;18.40;99.90;;;;;;5072005;28;20688;-74
2022/05/18 01:55:37;;;;;;;11.18;6.35;;;18.40;99.90;;;;;;5077433;28;20158;-75
2022/05/18 01:58:04;;;;;;;12.77;5.53;;;18.40;99.90;;;;;;5087508;28;20036;-75
2022/05/18 02:00:32;;;;;;;8.40;5.53;;;18.30;99.90;;;;;;5070702;28;20059;-75
2022/05/18 02:03:00;;;;;;;9.65;5.55;;;18.30;99.90;;;;;;5089963;28;20040;-75
2022/05/18 02:05:26;;;;;;;12.07;5.60;;;18.40;99.90;;;;;;5085855;28;20146;-75
2022/05/18 02:07:53;;;;;;;10.27;5.40;;;18.30;99.90;;;;;;5066411;28;20131;-75
2022/05/18 02:10:19;;;;;;;12.15;5.47;;;18.20;99.90;;;;;;5090030;28;20139;-74
2022/05/18 02:12:44;;;;;;;10.75;5.60;;;18.20;99.90;;;;;;5088220;28;20503;-75
2022/05/18 02:15:10;;;;;;;12.48;5.20;;;18.30;99.90;;;;;;5068613;28;20040;-75
2022/05/18 02:17:37;;;;;;;10.57;4.95;;;18.20;99.90;;;;;;5087264;28;20543;-75
2022/05/18 02:20:04;;;;;;;11.57;6.00;;;18.20;99.90;;;;;;5079117;28;20119;-75
2022/05/18 02:22:36;;;;;;;12.88;5.63;;;18.10;99.90;;;;;;5088204;28;20131;-76
2022/05/18 02:25:01;;;;;;;10.57;5.53;;;18.10;99.90;;;;;;5072030;28;20123;-75
2022/05/18 02:27:28;;;;;;;8.88;4.93;;;18.10;99.90;;;;;;5078924;28;20147;-75
2022/05/18 02:29:57;;;;;;;13.07;5.63;;;18.10;99.90;;;;;;5090234;28;20036;-74
2022/05/18 02:32:23;;;;;;;13.30;5.25;;;18.10;99.90;;;;;;5087887;28;20493;-75
2022/05/18 02:34:49;;;;;;;8.77;5.45;;;18.10;99.90;;;;;;5073703;28;20484;-76
2022/05/18 02:37:14;;;;;;;16.17;5.72;;;18.10;99.90;;;;;;5068753;28;20516;-74
2022/05/18 02:39:40;;;;;;;14.68;5.40;;;18.10;99.90;;;;;;5085478;28;20047;-74
2022/05/18 02:42:12;;;;;;;8.93;5.10;;;18.00;99.90;;;;;;5076848;28;20197;-75
2022/05/18 02:44:37;;;;;;;12.18;5.53;;;18.10;99.90;;;;;;5087932;28;20209;-75
2022/05/18 02:47:04;;;;;;;8.82;5.22;;;17.90;99.90;;;;;;5089591;28;20127;-75
2022/05/18 02:49:29;;;;;;;15.55;4.75;;;18.00;99.90;;;;;;5081503;28;20062;-75
2022/05/18 02:51:55;;;;;;;9.35;4.88;;;17.90;99.90;;;;;;5088649;28;20043;-75
2022/05/18 02:57:06;;;;;;;10.77;5.10;;;17.90;99.90;;;;;;5087482;28;20048;-75
2022/05/18 02:59:34;;;;;;;9.98;4.72;;;17.80;99.90;;;;;;5069095;28;20441;-75
2022/05/18 03:02:00;;;;;;;8.65;4.78;;;17.70;99.90;;;;;;5086987;28;20032;-75
2022/05/18 03:04:26;;;;;;;10.10;4.70;;;17.80;99.90;;;;;;5086674;28;20511;-75
2022/05/18 03:06:52;;;;;;;9.05;4.82;;;17.80;99.90;;;;;;5087191;28;20060;-75
2022/05/18 03:09:18;;;;;;;7.93;4.90;;;17.80;99.90;;;;;;5069784;28;20600;-74
2022/05/18 03:11:46;;;;;;;8.77;5.35;;;17.70;99.90;;;;;;5089263;28;20094;-74
2022/05/18 03:14:12;;;;;;;9.80;4.45;;;17.70;99.90;;;;;;5076179;28;20052;-75
2022/05/18 03:16:38;;;;;;;7.97;5.07;;;17.70;99.90;;;;;;5093694;28;20094;-77
2022/05/18 03:19:04;;;;;;;10.25;5.32;;;17.60;99.90;;;;;;5089803;28;20435;-75
2022/05/18 03:24:16;;;;;;;9.57;5.60;;;17.60;99.90;;;;;;5088626;28;20078;-75
2022/05/18 03:26:45;;;;;;;8.38;5.13;;;17.60;99.90;;;;;;5085667;28;20123;-76
2022/05/18 03:29:11;;;;;;;9.88;4.15;;;17.50;99.90;;;;;;5087613;28;20032;-76
2022/05/18 03:31:36;;;;;;;9.18;4.85;;;17.50;99.90;;;;;;5085559;28;20063;-75
2022/05/18 03:34:02;;;;;;;7.80;4.90;;;17.50;99.90;;;;;;5070052;28;20499;-75
2022/05/18 03:36:27;;;;;;;11.32;5.13;;;17.50;99.90;;;;;;5089292;28;20136;-76
2022/05/18 03:38:54;;;;;;;6.57;4.40;;;17.50;99.90;;;;;;5082130;28;20072;-75
2022/05/18 03:41:20;;;;;;;10.32;4.82;;;17.50;99.90;;;;;;5089207;28;20040;-75
2022/05/18 03:43:46;;;;;;;10.25;5.35;;;17.50;99.90;;;;;;5083171;28;20045;-75
2022/05/18 03:46:12;;;;;;;9.13;4.40;;;17.40;99.90;;;;;;5077269;28;20115;-75
2022/05/18 03:48:38;;;;;;;6.90;5.10;;;17.40;99.90;;;;;;5061014;28;20057;-75
2022/05/18 03:51:06;;;;;;;11.27;5.40;;;17.40;99.90;;;;;;5081656;28;20067;-75
2022/05/18 03:53:32;;;;;;;12.77;5.38;;;17.40;99.90;;;;;;5087112;28;20036;-76
2022/05/18 03:55:59;;;;;;;13.13;5.38;;;17.40;99.90;;;;;;5088991;28;20056;-76
2022/05/18 03:58:24;;;;;;;8.82;4.63;;;17.40;99.90;;;;;;5069252;28;20090;-76
2022/05/18 04:00:54;;;;;;;8.20;5.07;;;17.40;99.90;;;;;;5067654;28;20338;-76
2022/05/18 04:03:23;;;;;;;10.93;5.38;;;17.40;99.90;;;;;;5067223;28;20048;-75
2022/05/18 04:05:49;;;;;;;9.95;4.93;;;17.40;99.90;;;;;;5064879;28;20044;-76
2022/05/18 04:08:15;;;;;;;9.20;4.55;;;17.40;99.90;;;;;;5079140;28;20067;-76
2022/05/18 04:10:41;;;;;;;6.20;4.50;;;17.40;99.90;;;;;;5088949;28;20076;-76
2022/05/18 04:13:18;;;;;;;10.00;4.78;;;17.30;99.90;;;;;;5069068;28;20106;-76
2022/05/18 04:15:44;;;;;;;11.05;5.20;;;17.30;99.90;;;;;;5092483;28;20040;-75
2022/05/18 04:18:10;;;;;;;11.27;5.05;;;17.30;99.90;;;;;;5089050;28;20124;-75
2022/05/18 04:20:36;;;;;;;8.02;4.57;;;17.30;99.90;;;;;;5073031;28;20052;-75
2022/05/18 04:23:03;;;;;;;8.15;4.88;;;17.30;99.90;;;;;;5083235;28;20086;-75
2022/05/18 04:25:29;;;;;;;8.00;5.20;;;17.30;99.90;;;;;;5091661;28;20392;-76
2022/05/18 04:27:55;;;;;;;9.93;4.60;;;17.30;99.90;;;;;;5089046;28;20082;-75
2022/05/18 04:30:24;;;;;;;9.13;4.78;;;17.30;99.90;;;;;;5084040;28;20094;-76
2022/05/18 04:32:51;;;;;;;7.30;4.63;;;17.30;99.90;;;;;;5074486;28;20093;-75
2022/05/18 04:35:20;;;;;;;8.40;5.00;;;17.30;99.90;;;;;;5087054;28;20573;-75
2022/05/18 04:37:46;;;;;;;9.32;5.20;;;17.30;99.90;;;;;;5076478;28;20044;-75
2022/05/18 04:40:12;;;;;;;8.93;5.25;;;17.40;99.90;;;;;;5089288;28;20095;-77
2022/05/18 04:42:38;;;;;;;7.63;4.45;;;17.30;99.90;;;;;;5091715;28;20464;-75
2022/05/18 04:45:06;;;;;;;9.95;5.10;;;17.40;99.90;;;;;;5088948;28;20040;-76
2022/05/18 04:47:32;;;;;;;6.53;4.82;;;17.40;99.90;;;;;;5092374;28;20070;-76
2022/05/18 04:49:57;;;;;;;8.95;4.95;;;17.40;99.90;;;;;;5069623;28;20051;-75
2022/05/18 04:52:24;;;;;;;5.93;4.57;;;17.40;99.90;;;;;;5091029;28;20048;-76
2022/05/18 04:54:53;;;;;;;12.65;5.43;;;17.40;99.90;;;;;;5062506;28;20082;-76
2022/05/18 04:57:19;;;;;;;10.75;4.97;;;17.40;99.90;;;;;;5088435;28;20059;-76
2022/05/18 04:59:46;;;;;;;6.88;4.50;;;17.50;99.90;;;;;;5084398;28;20056;-75
2022/05/18 05:02:11;;;;;;;11.20;5.35;;;17.50;99.90;;;;;;5072099;28;20044;-76
2022/05/18 05:04:37;;;;;;;7.57;5.00;;;17.60;99.90;;;;;;5092569;28;20044;-76
2022/05/18 05:07:07;;;;;;;9.85;5.30;;;17.50;99.90;;;;;;5070669;28;20094;-76
2022/05/18 05:09:32;;;;;;;10.32;5.15;;;17.60;99.90;;;;;;5083755;28;20051;-76
2022/05/18 05:11:59;;;;;;;13.75;5.22;;;17.60;99.90;;;;;;5071196;28;20340;-78
2022/05/18 05:14:25;;;;;;;9.60;5.35;;;17.60;99.90;;;;;;5090952;28;20086;-77
2022/05/18 05:16:51;;;;;;;8.18;4.57;;;17.60;99.90;;;;;;5069833;28;20072;-76
2022/05/18 05:19:17;;;;;;;9.75;4.90;;;17.60;99.90;;;;;;5087070;28;20368;-75
2022/05/18 05:21:43;;;;;;;9.98;5.20;;;17.60;99.90;;;;;;5091981;28;20050;-77
2022/05/18 05:24:11;;;;;;;8.88;5.25;;;17.60;99.90;;;;;;5090147;28;20043;-76
2022/05/18 05:26:36;;;;;;;12.13;5.40;;;17.60;99.90;;;;;;5090871;28;20042;-77
2022/05/18 05:29:03;;;;;;;10.32;5.43;;;17.70;99.90;;;;;;5089017;28;20043;-76
2022/05/18 05:31:28;;;;;;;10.55;6.53;;;17.70;99.90;;;;;;5062781;28;20048;-76
2022/05/18 05:33:54;;;;;;;7.40;5.57;;;17.70;99.90;;;;;;5069790;28;20037;-76
2022/05/18 05:36:20;;;;;;;11.35;6.32;;;17.70;99.90;;;;;;5091007;28;20165;-76
2022/05/18 05:38:45;;;;;;;11.13;6.32;;;17.80;99.90;;;;;;5064863;28;20135;-76
2022/05/18 05:41:11;;;;;;;10.82;6.40;;;17.80;99.90;;;;;;5073412;28;20055;-76
2022/05/18 05:43:37;;;;;;;11.70;6.18;;;17.90;99.90;;;;;;5068962;28;20052;-76
2022/05/18 05:46:10;;;;;;;12.95;5.93;;;17.90;99.90;;;;;;5085723;28;20424;-76
2022/05/18 05:48:36;;;;;;;10.65;5.57;;;17.90;99.90;;;;;;5083339;28;20480;-76
2022/05/18 05:51:04;;;;;;;12.40;7.00;;;18.00;99.90;;;;;;5069805;28;20127;-76
2022/05/18 05:53:32;;;;;;;14.82;6.15;;;18.00;99.90;;;;;;5060836;28;20089;-76
2022/05/18 05:55:58;;;;;;;9.88;5.25;;;18.10;99.90;;;;;;5079288;28;20048;-77
2022/05/18 05:58:26;;;;;;;13.05;7.05;;;18.10;99.90;;;;;;5089214;28;20499;-76
2022/05/18 06:00:52;;;;;;;12.85;7.22;;;18.20;99.90;;;;;;5088016;28;20029;-76
2022/05/18 06:03:19;;;;;;;9.73;7.07;;;18.20;99.90;;;;;;5090828;28;20051;-76
2022/05/18 06:05:47;;;;;;;13.48;6.82;;;18.20;99.90;;;;;;5089727;28;20040;-77
2022/05/18 06:08:12;;;;;;;11.65;6.28;;;18.20;99.90;;;;;;5090465;28;20048;-76
2022/05/18 06:10:38;;;;;;;12.10;6.45;;;18.20;99.90;;;;;;5086225;28;20044;-76
2022/05/18 06:13:05;;;;;;;12.05;7.07;;;18.30;99.90;;;;;;5086149;28;20055;-75
2022/05/18 06:15:31;;;;;;;11.82;7.40;;;18.30;99.90;;;;;;5090183;28;20588;-75
2022/05/18 06:17:57;;;;;;;19.48;7.00;;;18.30;99.90;;;;;;5089656;28;20048;-75
2022/05/18 06:20:22;;;;;;;12.38;7.28;;;18.40;99.90;;;;;;5089052;28;20050;-75
2022/05/18 06:22:48;;;;;;;11.68;7.68;;;18.50;99.90;;;;;;5070631;28;20043;-76
2022/05/18 06:25:15;;;;;;;11.32;7.15;;;18.50;99.90;;;;;;5071655;28;20067;-76
2022/05/18 06:27:41;;;;;;;15.68;7.28;;;18.50;99.90;;;;;;5088773;28;20082;-75
2022/05/18 06:30:09;;;;;;;13.73;7.47;;;18.50;99.90;;;;;;5069760;28;20086;-75
2022/05/18 06:32:35;;;;;;;12.35;7.18;;;18.60;99.90;;;;;;5074953;28;20127;-75
2022/05/18 06:35:00;;;;;;;9.32;6.72;;;18.70;99.90;;;;;;5088322;28;22132;-75
2022/05/18 06:37:26;;;;;;;12.45;6.72;;;18.70;99.90;;;;;;5089631;28;20047;-75
2022/05/18 06:39:51;;;;;;;13.75;8.10;;;18.70;99.90;;;;;;5089539;28;20039;-75
2022/05/18 06:42:17;;;;;;;13.45;8.05;;;18.90;99.90;;;;;;5068480;28;20505;-74
2022/05/18 06:44:44;;;;;;;10.77;7.53;;;18.90;99.90;;;;;;5089051;28;20048;-74
2022/05/18 06:47:12;;;;;;;14.02;7.78;;;18.90;99.90;;;;;;5071105;28;20046;-75
2022/05/18 06:49:39;;;;;;;12.45;7.70;;;19.00;99.90;;;;;;5088153;28;20044;-76
2022/05/18 06:52:05;;;;;;;13.70;7.53;;;19.00;99.90;;;;;;5071151;28;20127;-74
2022/05/18 06:54:30;;;;;;;11.85;7.88;;;19.10;99.90;;;;;;5066136;28;20143;-74
2022/05/18 06:56:56;;;;;;;11.38;8.02;;;19.10;99.90;;;;;;5069160;28;20052;-75
2022/05/18 06:59:21;;;;;;;11.05;7.30;;;19.20;99.90;;;;;;5064632;28;20044;-76
2022/05/18 07:01:47;;;;;;;14.70;8.80;;;19.30;99.90;;;;;;5068860;28;20044;-75
2022/05/18 07:04:14;;;;;;;13.35;7.78;;;19.40;99.90;;;;;;5066990;28;20154;-76
2022/05/18 07:06:42;;;;;;;16.60;8.68;;;19.50;99.90;;;;;;5061294;28;20190;-75
2022/05/18 07:09:14;;;;;;;12.63;8.82;;;19.50;99.90;;;;;;5055479;28;20388;-75
2022/05/18 07:11:41;;;;;;;14.50;7.88;;;19.60;99.90;;;;;;5062665;28;20074;-76
2022/05/18 07:14:07;;;;;;;15.07;8.68;;;19.70;99.90;;;;;;5064806;28;20055;-77
2022/05/18 07:16:36;;;;;;;14.98;8.43;;;19.70;99.90;;;;;;5068177;28;20461;-76
2022/05/18 07:19:02;;;;;;;14.30;9.20;;;19.80;99.90;;;;;;5063336;28;20048;-75
2022/05/18 07:21:29;;;;;;;14.38;8.35;;;19.80;99.90;;;;;;5064711;28;20744;-76
2022/05/18 07:23:55;;;;;;;11.13;8.02;;;20.00;99.90;;;;;;5065292;28;20055;-76
2022/05/18 07:26:22;;;;;;;13.13;8.23;;;20.00;99.90;;;;;;5068960;28;20550;-76
2022/05/18 07:28:48;;;;;;;11.85;7.78;;;20.10;99.90;;;;;;5046210;28;20048;-74
2022/05/18 07:31:14;;;;;;;12.43;9.02;;;20.20;99.90;;;;;;5063330;28;20129;-77
2022/05/18 07:33:43;;;;;;;16.80;8.50;;;20.30;99.90;;;;;;5078485;28;20456;-76
2022/05/18 07:36:08;;;;;;;12.57;9.25;;;20.30;99.90;;;;;;5067337;28;20110;-76
2022/05/18 07:38:35;;;;;;;16.95;7.90;;;20.50;99.90;;;;;;5065797;28;20411;-76
2022/05/18 07:41:01;;;;;;;12.35;7.68;;;20.40;99.90;;;;;;5058529;28;20056;-77
2022/05/18 07:43:27;;;;;;;12.10;8.20;;;20.50;99.90;;;;;;5053731;28;20541;-77
2022/05/18 07:45:55;;;;;;;17.52;8.80;;;20.60;99.90;;;;;;5066987;28;20041;-77
2022/05/18 07:48:21;;;;;;;12.93;9.23;;;20.70;99.90;;;;;;5059851;28;20057;-76
2022/05/18 07:50:47;;;;;;;15.20;8.65;;;20.70;99.90;;;;;;5070033;28;20234;-77
2022/05/18 07:53:13;;;;;;;16.27;8.68;;;20.80;99.90;;;;;;5071455;28;20570;-78
2022/05/18 07:55:39;;;;;;;14.45;7.75;;;20.90;99.90;;;;;;5070082;28;20051;-77
2022/05/18 07:58:13;;;;;;;12.40;7.75;;;21.00;99.90;;;;;;5070182;28;20044;-76
2022/05/18 08:00:39;;;;;;;14.15;7.75;;;21.10;99.90;;;;;;5072817;28;20116;-76
2022/05/18 08:03:08;;;;;;;15.95;6.32;;;21.10;99.90;;;;;;5072564;28;20475;-76
2022/05/18 08:05:33;;;;;;;13.20;5.70;;;21.20;99.90;;;;;;5070567;28;20132;-75
2022/05/18 08:08:07;;;;;;;10.80;5.93;;;21.30;99.90;;;;;;5070950;28;20048;-76
2022/05/18 08:16:05;;;;;;;14.73;5.38;;;21.60;99.90;;;;;;5070077;28;20057;-77
2022/05/18 08:18:30;;;;;;;9.60;5.07;;;21.70;99.90;;;;;;5069130;28;20113;-77
2022/05/18 08:20:56;;;;;;;8.70;4.30;;;21.80;99.90;;;;;;5073129;28;20132;-78
2022/05/18 08:23:21;;;;;;;11.90;4.80;;;21.90;99.90;;;;;;5073222;28;20094;-76
2022/05/18 08:25:47;;;;;;;15.18;5.05;;;21.90;99.90;;;;;;5071761;28;20135;-77
2022/05/18 08:28:14;;;;;;;8.25;4.40;;;22.00;99.90;;;;;;5070564;28;20056;-77
2022/05/18 08:30:40;;;;;;;8.48;3.83;;;22.10;99.90;;;;;;5065977;28;20045;-78
2022/05/18 08:33:06;;;;;;;10.10;3.97;;;22.30;99.90;;;;;;5071673;28;20926;-77
2022/05/18 08:35:31;;;;;;;6.70;3.65;;;22.30;99.90;;;;;;5071350;28;20094;-76
2022/05/18 08:37:57;;;;;;;8.73;4.45;;;22.40;99.90;;;;;;5065209;28;20064;-76
2022/05/18 08:40:29;;;;;;;9.32;3.60;;;22.40;99.60;;;;;;5067424;28;20369;-76
2022/05/18 08:43:10;;;;;;;13.13;3.65;;;22.50;99.00;;;;;;5068166;28;20048;-78
2022/05/18 08:45:44;;;;;;;9.38;3.47;;;22.60;98.90;;;;;;5057147;28;20036;-75
2022/05/18 08:48:44;;;;;;;12.43;4.20;;;22.70;97.90;;;;;;5070600;28;20139;-74
2022/05/18 08:51:22;;;;;;;8.77;3.53;;;22.80;97.60;;;;;;5071959;28;20094;-76
2022/05/18 08:54:03;;;;;;;7.30;3.22;;;22.90;97.10;;;;;;5071985;28;20206;-73
2022/05/18 08:56:33;;;;;;;10.40;3.25;;;23.00;96.70;;;;;;5073887;28;20050;-74
2022/05/18 08:59:02;;;;;;;7.13;2.37;;;23.00;96.50;;;;;;5090712;28;20130;-75
2022/05/18 09:01:46;;;;;;;7.00;2.70;;;23.10;96.20;;;;;;5069764;28;20105;-75
2022/05/18 09:04:15;;;;;;;4.80;2.50;;;23.20;95.90;;;;;;5069974;28;20044;-74
2022/05/18 09:07:04;;;;;;;5.63;2.40;;;23.20;95.30;;;;;;5084268;28;20044;-75
2022/05/18 09:12:38;;;;;;;8.02;2.63;;;23.30;95.10;;;;;;5090356;28;20056;-75
2022/05/18 09:15:05;;;;;;;5.03;2.65;;;23.20;94.70;;;;;;5091283;28;20040;-75
2022/05/18 09:17:41;;;;;;;6.75;2.50;;;23.40;94.20;;;;;;5085580;28;20036;-75
2022/05/18 09:20:13;;;;;;;8.02;2.63;;;23.50;94.00;;;;;;5085878;28;20452;-74
2022/05/18 09:22:57;;;;;;;5.50;2.55;;;23.60;93.20;;;;;;5063792;28;20095;-75
2022/05/18 09:25:31;;;;;;;7.70;3.05;;;23.70;92.50;;;;;;5085231;28;20067;-78
2022/05/18 09:28:12;;;;;;;8.93;3.33;;;23.80;91.80;;;;;;5084484;28;20073;-75
2022/05/18 09:30:57;;;;;;;10.30;3.00;;;23.90;91.90;;;;;;5069685;28;20052;-75
2022/05/18 09:33:52;;;;;;;9.63;2.95;;;24.00;91.80;;;;;;5091380;28;20044;-74
2022/05/18 09:36:39;;;;;;;7.93;2.80;;;24.00;91.50;;;;;;5065134;28;20055;-76
2022/05/18 09:39:14;;;;;;;8.90;3.58;;;24.20;91.50;;;;;;5089307;28;20043;-76
2022/05/18 09:41:56;;;;;;;5.75;3.63;;;24.20;91.10;;;;;;5065042;28;20067;-76
2022/05/18 09:44:54;;;;;;;10.05;4.07;;;24.30;90.90;;;;;;5067350;28;20044;-76
2022/05/18 09:47:24;;;;;;;8.88;3.90;;;24.40;90.60;;;;;;5085454;28;20068;-78
2022/05/18 09:50:00;;;;;;;7.78;3.20;;;24.40;89.70;;;;;;5064274;28;20095;-76
2022/05/18 09:52:28;;;;;;;10.73;3.38;;;24.50;90.30;;;;;;5086458;28;20675;-76
2022/05/18 09:54:56;;;;;;;10.05;4.30;;;24.60;90.60;;;;;;5056308;28;20198;-76
2022/05/18 09:57:43;;;;;;;9.10;4.65;;;24.70;90.70;;;;;;5064135;28;20052;-76
2022/05/18 10:00:15;;;;;;;9.05;5.15;;;24.70;90.50;;;;;;5065559;28;20404;-74
2022/05/18 10:08:31;;;;;;;12.05;3.90;;;24.80;90.50;;;;;;5056790;28;20048;-74
2022/05/18 10:11:01;;;;;;;12.80;5.35;;;24.90;91.20;;;;;;5035978;28;20124;-75
2022/05/18 10:13:33;;;;;;;8.30;4.23;;;24.90;90.60;;;;;;5038623;28;20053;-76
2022/05/18 10:16:02;;;;;;;7.20;4.13;;;25.00;90.80;;;;;;5052940;28;20543;-75
2022/05/18 10:18:49;;;;;;;8.00;4.13;;;25.10;90.60;;;;;;5057190;28;20076;-75
2022/05/18 10:21:52;;;;;;;13.10;4.47;;;25.20;90.40;;;;;;5041786;28;20067;-74
2022/05/18 10:24:36;;;;;;;8.90;4.22;;;25.20;90.70;;;;;;5037459;28;20048;-75
2022/05/18 10:27:13;;;;;;;8.88;5.00;;;25.20;90.70;;;;;;5056200;28;20495;-75
2022/05/18 10:29:40;;;;;;;12.25;4.93;;;25.30;90.20;;;;;;5043855;28;20057;-76
2022/05/18 10:32:31;;;;;;;10.70;3.90;;;25.40;89.70;;;;;;5060290;28;20688;-74
2022/05/18 10:34:58;;;;;;;7.82;4.03;;;25.40;90.00;;;;;;5037617;28;20132;-74
2022/05/18 10:37:37;;;;;;;14.50;4.93;;;25.50;89.70;;;;;;5032028;28;20053;-75
2022/05/18 10:40:04;;;;;;;9.70;3.83;;;25.50;88.60;;;;;;5043657;28;20048;-74
2022/05/18 10:42:46;;;;;;;7.93;3.45;;;25.60;89.30;;;;;;5049485;28;20040;-74
2022/05/18 10:45:27;;;;;;;10.73;4.35;;;25.60;88.70;;;;;;5051786;28;20572;-74
2022/05/18 10:48:05;;;;;;;8.32;4.30;;;25.70;87.60;;;;;;5033380;28;20045;-74
2022/05/18 10:50:41;;;;;;;12.45;4.82;;;25.80;86.40;;;;;;5066632;28;20102;-75
2022/05/18 10:53:12;;;;;;;7.68;4.25;;;25.80;85.70;;;;;;5051673;28;20174;-75
2022/05/18 10:55:57;;;;;;;8.35;5.10;;;26.00;85.60;;;;;;5040785;28;20563;-74
2022/05/18 10:58:51;;;;;;;10.60;4.00;;;26.00;84.50;;;;;;5048225;28;20059;-74
2022/05/18 11:01:32;;;;;;;10.77;4.80;;;26.10;85.20;;;;;;5056456;28;20486;-75
2022/05/18 11:04:11;;;;;;;9.50;4.40;;;26.00;85.30;;;;;;5064295;28;20043;-74
2022/05/18 11:06:41;;;;;;;11.93;5.45;;;26.10;86.30;;;;;;5048021;28;20562;-76
2022/05/18 11:09:17;;;;;;;8.02;4.53;;;26.20;84.20;;;;;;5061229;28;20055;-74
2022/05/18 11:11:57;;;;;;;9.70;5.97;;;26.20;84.70;;;;;;5051127;28;20067;-75
2022/05/18 11:14:34;;;;;;;13.45;7.05;;;26.30;83.90;;;;;;5042670;28;20048;-75
2022/05/18 11:17:20;;;;;;;11.07;6.05;;;26.40;83.50;;;;;;5063040;28;20052;-74
2022/05/18 11:20:00;;;;;;;9.40;5.22;;;26.40;83.40;;;;;;5064179;28;20044;-75
2022/05/18 11:22:37;;;;;;;11.60;5.90;;;26.60;85.00;;;;;;5049547;28;20605;-75
2022/05/18 11:25:20;;;;;;;10.75;6.13;;;26.50;84.70;;;;;;5065390;28;20036;-75
2022/05/18 11:27:55;;;;;;;11.40;5.45;;;26.80;83.70;;;;;;5046030;28;20052;-74
2022/05/18 11:30:44;;;;;;;12.98;6.10;;;26.90;83.90;;;;;;5058172;28;20049;-76
2022/05/18 11:33:26;;;;;;;13.90;6.40;;;27.00;84.10;;;;;;5048285;28;20384;-75
2022/05/18 11:36:17;;;;;;;11.23;6.57;;;27.10;82.50;;;;;;5048452;28;20052;-74
2022/05/18 11:39:14;;;;;;;13.00;6.28;;;27.10;82.50;;;;;;5045944;28;20122;-75
2022/05/18 11:41:47;;;;;;;10.50;5.47;;;27.30;83.50;;;;;;5045071;28;20553;-74
2022/05/18 11:44:36;;;;;;;12.77;5.47;;;27.30;83.30;;;;;;5048272;28;20045;-75
2022/05/18 11:47:21;;;;;;;9.25;5.55;;;27.40;83.40;;;;;;5067913;28;20051;-75
2022/05/18 11:50:05;;;;;;;9.82;6.53;;;27.50;83.00;;;;;;5065307;28;20523;-75
2022/05/18 11:53:10;;;;;;;12.82;6.68;;;27.60;83.10;;;;;;5064368;28;20120;-75
2022/05/18 11:55:54;;;;;;;14.10;7.45;;;27.70;83.70;;;;;;5056572;28;20152;-78
2022/05/18 11:58:53;;;;;;;10.95;7.80;;;27.90;83.30;;;;;;5059670;28;20052;-75
2022/05/18 12:01:32;;;;;;;14.20;7.72;;;28.00;82.60;;;;;;5061274;28;20041;-75
2022/05/18 12:04:06;;;;;;;13.77;7.57;;;28.10;82.10;;;;;;5061086;28;20063;-75
2022/05/18 12:06:49;;;;;;;11.98;7.18;;;28.20;82.20;;;;;;5068036;28;20132;-75
2022/05/18 12:09:52;;;;;;;12.70;6.07;;;28.30;81.70;;;;;;5064326;28;21658;-75
2022/05/18 12:12:38;;;;;;;10.05;6.65;;;28.40;82.90;;;;;;5063768;28;20361;-75
2022/05/18 12:15:29;;;;;;;12.75;7.43;;;28.60;81.90;;;;;;5064386;28;20484;-77
2022/05/18 12:18:03;;;;;;;11.20;9.05;;;28.60;80.70;;;;;;5059385;28;20100;-75
2022/05/18 12:21:01;;;;;;;11.20;8.05;;;28.60;78.30;;;;;;5061779;28;20551;-75
2022/05/18 12:23:32;;;;;;;11.20;7.45;;;28.60;79.00;;;;;;5075215;28;20454;-75
2022/05/18 12:25:58;;;;;;;14.20;7.22;;;28.60;79.50;;;;;;5063395;28;20080;-75
2022/05/18 12:28:26;;;;;;;14.90;8.45;;;28.70;80.30;;;;;;5064288;28;20117;-76
2022/05/18 12:30:53;;;;;;;14.77;7.70;;;28.70;78.80;;;;;;5064622;28;20051;-75
2022/05/18 12:33:20;;;;;;;18.55;8.38;;;28.70;78.40;;;;;;5062498;28;20048;-75
2022/05/18 12:36:02;;;;;;;11.02;7.50;;;28.70;78.80;;;;;;5067203;28;20044;-75
2022/05/18 12:38:51;;;;;;;18.88;8.65;;;28.70;79.90;;;;;;5059219;28;20044;-76
2022/05/18 12:41:17;;;;;;;14.00;8.25;;;28.70;80.00;;;;;;5067212;28;20807;-75
2022/05/18 12:43:50;;;;;;;16.33;8.75;;;28.60;78.20;;;;;;5064762;28;20435;-74
2022/05/18 12:46:16;;;;;;;15.23;7.05;;;28.60;77.80;;;;;;5046823;28;20048;-75
2022/05/18 12:48:57;;;;;;;14.20;7.18;;;28.50;78.40;;;;;;5059691;28;20127;-75
2022/05/18 12:51:30;;;;;;;13.07;7.05;;;28.40;78.50;;;;;;5067539;28;20045;-76
2022/05/18 12:54:11;;;;;;;12.43;8.23;;;28.30;78.50;;;;;;5067751;28;20052;-75
2022/05/18 12:56:36;;;;;;;12.98;6.72;;;28.20;78.30;;;;;;5068757;28;20051;-75
2022/05/18 13:00:04;;;;;;;14.43;8.85;;;28.10;78.80;;;;;;5071630;28;20050;-76
2022/05/18 13:02:40;;;;;;;21.95;8.48;;;28.00;78.60;;;;;;5002184;28;20059;-75
2022/05/18 13:05:25;;;;;;;10.88;5.97;;;27.70;79.00;;;;;;5072833;28;20050;-75
2022/05/18 13:07:51;;;;;;;12.40;7.75;;;27.80;80.40;;;;;;5087657;28;20122;-75
2022/05/18 13:10:22;;;;;;;26.05;17.52;;;27.70;80.40;;;;;;5089002;28;20043;-75
2022/05/18 13:13:04;;;;;;;22.40;16.38;;;27.70;80.10;;;;;;5069142;28;20071;-76
2022/05/18 13:15:52;;;;;;;26.02;17.00;;;27.50;80.50;;;;;;5066975;28;20036;-77
2022/05/18 13:18:20;;;;;;;27.08;17.38;;;27.30;81.30;;;;;;5086806;28;20035;-78